FH16Y KEWR-KJFK
Flight info
| Callsign | FH16Y |
|---|---|
| Flight time | 0h 22m |
| Altitude | 3000 |
| Route | PROUD |
| Aircraft | C750/M-SBDE3FGHRWXY/S |
Departure
| Time | 2026-05-04 08:13 |
|---|---|
| Airport | Newark Liberty International Airport (KEWR) |
Arrival
| Time | 2026-05-04 08:35 |
|---|---|
| Airport | John F. Kennedy International Airport (KJFK) |
| Time | Latitude | Longitude | Altitude | Speed | Heading |
|---|---|---|---|---|---|
| 2026-05-04 07:47 | 40.70446 | -74.16543 | 19 ft | 0 kts | 95° |
| 2026-05-04 08:08 | 40.70454 | -74.16537 | 20 ft | 2 kts | 8° |
| 2026-05-04 08:08 | 40.70478 | -74.16550 | 20 ft | 3 kts | 303° |
| 2026-05-04 08:10 | 40.70279 | -74.16375 | 15 ft | 1 kts | 95° |
| 2026-05-04 08:11 | 40.70277 | -74.16351 | 15 ft | 5 kts | 95° |
| 2026-05-04 08:11 | 40.70251 | -74.16227 | 15 ft | 9 kts | 178° |
| 2026-05-04 08:11 | 40.70176 | -74.16271 | 14 ft | 13 kts | 205° |
| 2026-05-04 08:12 | 40.70092 | -74.16324 | 13 ft | 16 kts | 205° |
| 2026-05-04 08:12 | 40.69716 | -74.16561 | 14 ft | 114 kts | 205° |
| 2026-05-04 08:12 | 40.68851 | -74.17110 | 111 ft | 164 kts | 207° |
| 2026-05-04 08:12 | 40.67734 | -74.17779 | 615 ft | 186 kts | 203° |
| 2026-05-04 08:13 | 40.66420 | -74.18214 | 1039 ft | 201 kts | 190° |
| 2026-05-04 08:13 | 40.65020 | -74.18094 | 1645 ft | 205 kts | 179° |
| 2026-05-04 08:13 | 40.63582 | -74.17831 | 2369 ft | 214 kts | 179° |
| 2026-05-04 08:13 | 40.62054 | -74.17648 | 2528 ft | 223 kts | 183° |
| 2026-05-04 08:14 | 40.60552 | -74.17584 | 2730 ft | 216 kts | 185° |
| 2026-05-04 08:14 | 40.58995 | -74.17531 | 2976 ft | 239 kts | 184° |
| 2026-05-04 08:14 | 40.57238 | -74.17441 | 3255 ft | 257 kts | 182° |
| 2026-05-04 08:16 | 40.44524 | -74.16286 | 3905 ft | 262 kts | 183° |
| 2026-05-04 08:16 | 40.42708 | -74.16241 | 3905 ft | 261 kts | 184° |
| 2026-05-04 08:16 | 40.40889 | -74.16205 | 3907 ft | 261 kts | 184° |
| 2026-05-04 08:17 | 40.39063 | -74.16164 | 3927 ft | 262 kts | 184° |
| 2026-05-04 08:17 | 40.37265 | -74.16118 | 3931 ft | 261 kts | 184° |
| 2026-05-04 08:17 | 40.35424 | -74.16073 | 3933 ft | 261 kts | 184° |
| 2026-05-04 08:17 | 40.33631 | -74.16031 | 3936 ft | 261 kts | 184° |
| 2026-05-04 08:19 | 40.22517 | -74.07448 | 3944 ft | 274 kts | 146° |
| 2026-05-04 08:19 | 40.21022 | -74.05905 | 3928 ft | 274 kts | 146° |
| 2026-05-04 08:20 | 40.19527 | -74.04364 | 3923 ft | 274 kts | 146° |
| 2026-05-04 08:20 | 40.18046 | -74.02840 | 3922 ft | 274 kts | 146° |
| 2026-05-04 08:20 | 40.16523 | -74.01275 | 3921 ft | 274 kts | 146° |
| 2026-05-04 08:20 | 40.15024 | -73.99734 | 3917 ft | 276 kts | 146° |
| 2026-05-04 08:21 | 40.13532 | -73.98201 | 3928 ft | 275 kts | 146° |
| 2026-05-04 08:21 | 40.12030 | -73.96658 | 3928 ft | 275 kts | 146° |
| 2026-05-04 08:21 | 40.10502 | -73.95093 | 4031 ft | 284 kts | 146° |
| 2026-05-04 08:21 | 40.08963 | -73.93515 | 4033 ft | 279 kts | 146° |
| 2026-05-04 08:22 | 40.07442 | -73.91952 | 4032 ft | 278 kts | 146° |
| 2026-05-04 08:22 | 40.05970 | -73.90317 | 3999 ft | 280 kts | 137° |
| 2026-05-04 08:24 | 40.12278 | -73.77644 | 4034 ft | 276 kts | 27° |
| 2026-05-04 08:24 | 40.13912 | -73.76324 | 4030 ft | 276 kts | 27° |
| 2026-05-04 08:24 | 40.15543 | -73.75011 | 4029 ft | 276 kts | 27° |
| 2026-05-04 08:24 | 40.17177 | -73.73697 | 4028 ft | 275 kts | 27° |
| 2026-05-04 08:25 | 40.18809 | -73.72381 | 4025 ft | 276 kts | 27° |
| 2026-05-04 08:25 | 40.20439 | -73.71067 | 4028 ft | 274 kts | 27° |
| 2026-05-04 08:25 | 40.22065 | -73.69755 | 4026 ft | 276 kts | 27° |
| 2026-05-04 08:25 | 40.23696 | -73.68438 | 4027 ft | 274 kts | 27° |
| 2026-05-04 08:26 | 40.25328 | -73.67121 | 4029 ft | 276 kts | 27° |
| 2026-05-04 08:27 | 40.36764 | -73.57863 | 3695 ft | 277 kts | 27° |
| 2026-05-04 08:28 | 40.38400 | -73.56536 | 3528 ft | 275 kts | 27° |
| 2026-05-04 08:28 | 40.40144 | -73.55647 | 3240 ft | 266 kts | 4° |
| 2026-05-04 08:28 | 40.41952 | -73.55414 | 3009 ft | 261 kts | 359° |
| 2026-05-04 08:28 | 40.43738 | -73.55181 | 3018 ft | 258 kts | 0° |
| 2026-05-04 08:29 | 40.45535 | -73.54927 | 3011 ft | 260 kts | 0° |
| 2026-05-04 08:29 | 40.47342 | -73.54674 | 3018 ft | 261 kts | 0° |
| 2026-05-04 08:29 | 40.49149 | -73.54427 | 3022 ft | 261 kts | 0° |
| 2026-05-04 08:31 | 40.57674 | -73.60249 | 2534 ft | 205 kts | 300° |
| 2026-05-04 08:33 | 40.62072 | -73.70892 | 838 ft | 173 kts | 297° |
| 2026-05-04 08:33 | 40.62657 | -73.72183 | 670 ft | 154 kts | 298° |
| 2026-05-04 08:35 | 40.65335 | -73.78029 | 18 ft | 32 kts | 304° |
| 2026-05-04 08:35 | 40.65430 | -73.78252 | 18 ft | 23 kts | 310° |
| 2026-05-04 08:35 | 40.65483 | -73.78197 | 17 ft | 9 kts | 90° |
| 2026-05-04 08:35 | 40.65498 | -73.78140 | 19 ft | 3 kts | 79° |
| 2026-05-04 08:37 | 40.65715 | -73.77745 | 21 ft | 17 kts | 20° |
| 2026-05-04 08:37 | 40.64742 | -73.76743 | 16 ft | 0 kts | 297° |